Portada
METAR-TAF:

METAR-TAF

Aeroports :

Krasnoiarsk, Rússia

latitud: 56-10-18N, longitud: 092-29-36E, altitud: 287 m

Observació

L'informe es va fer fa 37 minuts, a les 23:30 UTC
Vent 2 kt del Est
Temperatura 13°C
Humitat 72%
Pressió 1011 hPa
Visibilitat 10 km o més
sense núvols per sota de 1500 mi sense presència de cumulonimbus.

METAR: UNKL 162330Z 08001MPS CAVOK 13/08 Q1011 R29/CLRD65 NOSIG RMK QFE733

Hora: 07:07 (00:07 UTC)

Pronòstic

L'informe es va fer fa 1 hora i 9 minuts, a les 22:58 UTC
Pronòstic vàlid del 17 a les 00 UTC al 17 a les 24 UTC
Vent 6 kt del Sud-Oest amb ràfegues de 16 kt
Visibilitat 10 km o més
Núvols disperses a una alçada de 2000 ft, Cumulonimbus.
Temporalment
l' 17 a les 05 UTC al 17 a les 10 UTC
Vent 16 kt del Oest/Sud-Oest amb ràfegues de 27 kt
tempesta

TAF: UNKL 162258Z 1700/1724 22003G08MPS 9999 SCT020CB TEMPO 1705/1710 25008G14MPS TS

Observacions i pronòstics meteorològics de més de 4000 aeroports (METAR i TAF).

Les estacions disponibles són els punts grocs i vermells al mapa.

Posi el ratolí al punt desitjat per veure el nom de l'estació.

Feu clic per veure les observacions i els pronòstics meteorològics.

Per canviar el mapa: feu clic els botons verds amb una creu de color negre per apropar; al botó verd amb un guió per allunyar la imatge; o en les fletxes verdes per a mapes adjacents.


METAR-TAF: